Time;durP1;ratioP1;P1;durP2;ratioP2;P2;SDS_P1;SDS_P2;PMS_P1;PMS_P2;Temp;Humidity;BMP_temperature;BMP_pressure;BME280_temperature;BME280_humidity;BME280_pressure;Samples;Min_cycle;Max_cycle;Signal;HPM_P1;HPM_P2
2021/03/20 00:02:22;;;;;;;1.60;1.50;;;3.80;97.70;;;;;;5041553;28;20484;-77
2021/03/20 00:04:48;;;;;;;1.60;1.50;;;3.70;97.50;;;;;;5048892;28;20458;-77
2021/03/20 00:07:15;;;;;;;1.60;1.50;;;3.70;97.70;;;;;;5041562;28;20492;-76
2021/03/20 00:09:41;;;;;;;1.60;1.50;;;3.70;97.70;;;;;;5042773;28;20578;-76
2021/03/20 00:12:09;;;;;;;1.60;1.40;;;3.70;97.70;;;;;;5035990;28;20560;-76
2021/03/20 00:14:36;;;;;;;1.60;1.37;;;3.70;97.70;;;;;;5046468;28;20478;-77
2021/03/20 00:17:03;;;;;;;1.70;1.60;;;3.60;97.70;;;;;;5045722;28;20547;-77
2021/03/20 00:19:29;;;;;;;1.60;1.40;;;3.60;97.90;;;;;;5052050;28;20477;-77
2021/03/20 00:21:55;;;;;;;1.60;1.50;;;3.50;98.20;;;;;;5046997;28;20492;-77
2021/03/20 00:24:21;;;;;;;1.60;1.40;;;3.50;98.20;;;;;;5054378;28;20466;-76
2021/03/20 00:26:47;;;;;;;1.60;1.50;;;3.40;98.20;;;;;;5034819;28;20482;-76
2021/03/20 00:29:15;;;;;;;1.60;1.50;;;3.40;98.20;;;;;;5054077;28;20528;-77
2021/03/20 00:31:41;;;;;;;1.60;1.40;;;3.40;98.20;;;;;;5044339;28;20531;-77
2021/03/20 00:34:07;;;;;;;1.60;1.40;;;3.40;98.20;;;;;;5046527;28;20880;-77
2021/03/20 00:36:33;;;;;;;1.60;1.40;;;3.30;98.20;;;;;;5032140;28;20482;-76
2021/03/20 00:39:00;;;;;;;1.60;1.40;;;3.30;98.20;;;;;;5046369;28;20810;-76
2021/03/20 00:41:26;;;;;;;1.60;1.40;;;3.30;98.20;;;;;;5035117;28;20535;-76
2021/03/20 00:43:52;;;;;;;1.60;1.40;;;3.30;98.20;;;;;;5052347;28;20470;-76
2021/03/20 00:46:19;;;;;;;1.60;1.50;;;3.30;98.20;;;;;;5033343;28;20490;-76
2021/03/20 00:48:45;;;;;;;1.60;1.40;;;3.30;98.20;;;;;;5054035;28;20478;-76
2021/03/20 00:51:12;;;;;;;1.60;1.40;;;3.20;98.20;;;;;;5041564;28;20474;-75
2021/03/20 00:53:38;;;;;;;1.60;1.50;;;3.20;98.20;;;;;;5057192;28;20455;-76
2021/03/20 00:56:05;;;;;;;1.60;1.50;;;3.20;98.20;;;;;;5045377;28;20470;-77
2021/03/20 00:58:34;;;;;;;1.60;1.50;;;3.20;98.20;;;;;;5050740;28;20490;-76
2021/03/20 01:01:03;;;;;;;1.70;1.60;;;3.10;98.20;;;;;;5035482;28;20550;-76
2021/03/20 01:03:31;;;;;;;1.63;1.53;;;3.10;98.20;;;;;;5055634;28;20870;-75
2021/03/20 01:05:57;;;;;;;1.60;1.40;;;3.10;98.20;;;;;;5031427;28;20875;-76
2021/03/20 01:08:24;;;;;;;1.60;1.50;;;3.00;98.20;;;;;;5051580;28;21016;-76
2021/03/20 01:10:52;;;;;;;1.60;1.50;;;3.00;98.20;;;;;;5032729;28;20459;-76
2021/03/20 01:13:19;;;;;;;1.60;1.50;;;3.00;98.20;;;;;;5052256;28;20562;-76
2021/03/20 01:15:46;;;;;;;1.60;1.40;;;3.00;98.20;;;;;;5045771;28;20486;-76
2021/03/20 01:18:13;;;;;;;1.70;1.60;;;3.00;98.20;;;;;;5009284;28;20508;-76
2021/03/20 01:20:41;;;;;;;1.70;1.60;;;3.00;98.20;;;;;;5043456;28;20463;-75
2021/03/20 01:23:07;;;;;;;1.60;1.47;;;3.00;98.20;;;;;;5038938;28;20482;-75
2021/03/20 01:25:34;;;;;;;1.60;1.50;;;3.00;98.20;;;;;;5034782;28;20482;-76
2021/03/20 01:28:00;;;;;;;1.60;1.40;;;3.00;98.20;;;;;;5025148;28;20494;-76
2021/03/20 01:30:28;;;;;;;1.70;1.60;;;2.90;98.20;;;;;;5042887;28;20474;-76
2021/03/20 01:32:54;;;;;;;1.60;1.50;;;2.90;98.20;;;;;;5041251;28;20481;-76
2021/03/20 01:35:21;;;;;;;1.60;1.50;;;2.90;98.20;;;;;;5044891;28;20485;-76
2021/03/20 01:37:49;;;;;;;1.60;1.40;;;2.80;98.20;;;;;;5037057;28;20547;-76
2021/03/20 01:40:18;;;;;;;1.60;1.40;;;2.80;98.20;;;;;;5047059;28;20844;-76
2021/03/20 01:42:45;;;;;;;1.70;1.60;;;2.80;98.20;;;;;;5041293;28;20486;-75
2021/03/20 01:45:21;;;;;;;1.70;1.60;;;2.70;98.20;;;;;;5046858;28;20470;-77
2021/03/20 01:48:01;;;;;;;1.60;1.50;;;2.70;98.20;;;;;;5034362;28;20882;-76
2021/03/20 01:50:37;;;;;;;1.63;1.50;;;2.70;98.20;;;;;;5046600;28;20499;-76
2021/03/20 01:53:16;;;;;;;1.80;1.70;;;2.80;98.20;;;;;;5040780;28;21025;-76
2021/03/20 01:55:43;;;;;;;1.60;1.50;;;2.80;98.20;;;;;;5046651;28;20478;-75
2021/03/20 01:58:10;;;;;;;1.60;1.40;;;2.70;98.20;;;;;;5037274;28;20981;-75
2021/03/20 02:00:39;;;;;;;1.60;1.40;;;2.70;98.20;;;;;;5045234;28;20463;-76
2021/03/20 02:03:08;;;;;;;1.60;1.40;;;2.70;98.20;;;;;;5041779;28;20490;-75
2021/03/20 02:05:34;;;;;;;1.63;1.50;;;2.70;98.20;;;;;;5043891;28;20944;-77
2021/03/20 02:08:03;;;;;;;1.60;1.40;;;2.70;98.20;;;;;;5038327;28;20781;-76
2021/03/20 02:10:35;;;;;;;1.70;1.60;;;2.70;98.20;;;;;;5045675;28;20462;-76
2021/03/20 02:13:08;;;;;;;1.70;1.50;;;2.60;98.20;;;;;;5036659;28;20764;-75
2021/03/20 02:15:39;;;;;;;1.70;1.60;;;2.60;98.20;;;;;;5046192;28;20489;-75
2021/03/20 02:18:15;;;;;;;1.70;1.60;;;2.50;98.20;;;;;;5039156;28;20518;-77
2021/03/20 02:21:08;;;;;;;1.77;1.67;;;2.50;98.20;;;;;;5034089;28;20455;-74
2021/03/20 02:24:08;;;;;;;1.60;1.50;;;2.40;98.20;;;;;;5008352;28;20486;-76
2021/03/20 02:27:12;;;;;;;1.70;1.60;;;2.40;98.20;;;;;;5039818;28;20461;-75
2021/03/20 02:30:23;;;;;;;1.60;1.50;;;2.30;98.20;;;;;;5018142;28;20473;-76
2021/03/20 02:33:09;;;;;;;1.60;1.50;;;2.30;98.20;;;;;;5043027;28;20474;-77
2021/03/20 02:35:40;;;;;;;1.60;1.50;;;2.30;98.20;;;;;;5000748;28;20495;-76
2021/03/20 02:38:16;;;;;;;1.60;1.50;;;2.30;98.20;;;;;;5044323;28;20491;-77
2021/03/20 02:40:51;;;;;;;1.70;1.60;;;2.20;98.20;;;;;;5051009;28;21042;-75
2021/03/20 02:43:28;;;;;;;1.60;1.50;;;2.20;98.20;;;;;;5014164;28;20487;-77
2021/03/20 02:46:00;;;;;;;1.60;1.50;;;2.20;98.20;;;;;;5034784;28;20461;-77
2021/03/20 02:48:36;;;;;;;1.60;1.40;;;2.20;98.20;;;;;;5050707;28;20491;-76
2021/03/20 02:51:08;;;;;;;1.60;1.50;;;2.20;98.20;;;;;;5034679;28;20457;-76
2021/03/20 02:53:40;;;;;;;1.60;1.50;;;2.20;98.20;;;;;;5048621;28;20905;-76
2021/03/20 02:56:13;;;;;;;1.73;1.63;;;2.20;98.20;;;;;;5034987;28;20473;-75
2021/03/20 02:58:46;;;;;;;1.60;1.50;;;2.20;98.20;;;;;;5055841;28;20554;-75
2021/03/20 03:01:17;;;;;;;1.70;1.50;;;2.20;98.20;;;;;;5038373;28;20564;-75
2021/03/20 03:03:47;;;;;;;1.63;1.50;;;2.10;98.20;;;;;;5050971;28;20462;-75
2021/03/20 03:06:21;;;;;;;1.70;1.60;;;2.10;98.20;;;;;;5034488;28;20956;-77
2021/03/20 03:08:52;;;;;;;1.60;1.50;;;2.10;98.20;;;;;;5039720;28;20500;-75
2021/03/20 03:11:22;;;;;;;1.60;1.47;;;2.10;98.20;;;;;;5037388;28;20484;-78
2021/03/20 03:13:51;;;;;;;1.67;1.50;;;2.10;98.20;;;;;;5052277;28;20980;-76
2021/03/20 03:16:20;;;;;;;1.70;1.60;;;2.00;98.20;;;;;;5043771;28;20474;-75
2021/03/20 03:18:52;;;;;;;1.60;1.50;;;2.00;98.20;;;;;;5053711;28;20498;-77
2021/03/20 03:21:20;;;;;;;1.60;1.50;;;2.00;98.20;;;;;;5036385;28;20504;-75
2021/03/20 03:23:46;;;;;;;1.70;1.60;;;2.00;98.20;;;;;;5047445;28;20464;-77
2021/03/20 03:26:17;;;;;;;1.60;1.50;;;1.90;98.20;;;;;;5039111;28;20507;-75
2021/03/20 03:28:47;;;;;;;1.70;1.57;;;1.90;98.20;;;;;;5052481;28;20486;-77
2021/03/20 03:31:18;;;;;;;1.70;1.60;;;1.90;98.20;;;;;;5035000;28;20482;-77
2021/03/20 03:33:56;;;;;;;1.60;1.50;;;1.80;98.20;;;;;;5053493;28;20462;-77
2021/03/20 03:36:23;;;;;;;1.60;1.50;;;1.80;98.20;;;;;;5039587;28;20476;-77
2021/03/20 03:38:54;;;;;;;1.63;1.50;;;1.80;98.20;;;;;;5050052;28;20770;-76
2021/03/20 03:41:24;;;;;;;1.67;1.57;;;1.80;98.20;;;;;;5036361;28;20484;-77
2021/03/20 03:43:52;;;;;;;1.60;1.50;;;1.80;98.20;;;;;;5051249;28;20473;-77
2021/03/20 03:46:21;;;;;;;1.77;1.67;;;1.70;98.20;;;;;;5038325;28;20838;-75
2021/03/20 03:48:53;;;;;;;1.70;1.60;;;1.70;98.20;;;;;;5050856;28;20589;-76
2021/03/20 03:51:20;;;;;;;1.63;1.50;;;1.70;98.20;;;;;;5037073;28;20897;-76
2021/03/20 03:53:46;;;;;;;1.70;1.50;;;1.70;98.20;;;;;;5047788;28;20466;-77
2021/03/20 03:56:26;;;;;;;1.83;1.70;;;1.70;98.20;;;;;;5036383;28;20814;-77
2021/03/20 03:58:59;;;;;;;1.60;1.50;;;1.70;98.20;;;;;;5042991;28;20486;-76
2021/03/20 04:01:37;;;;;;;1.63;1.50;;;1.70;98.20;;;;;;5038751;28;20488;-76
2021/03/20 04:04:19;;;;;;;1.80;1.70;;;1.70;98.20;;;;;;5041401;28;20466;-76
2021/03/20 04:07:19;;;;;;;1.60;1.50;;;1.70;98.20;;;;;;5032560;28;20549;-76
2021/03/20 04:09:59;;;;;;;1.70;1.60;;;1.60;98.20;;;;;;5023671;28;20528;-76
2021/03/20 04:12:33;;;;;;;1.83;1.73;;;1.60;98.20;;;;;;5037631;28;21025;-77
2021/03/20 04:15:04;;;;;;;1.60;1.50;;;1.60;98.20;;;;;;5048267;28;20483;-76
2021/03/20 04:17:37;;;;;;;1.70;1.60;;;1.50;98.20;;;;;;5036074;28;20490;-76
2021/03/20 04:20:12;;;;;;;1.67;1.50;;;1.50;98.20;;;;;;5045115;28;20458;-76
2021/03/20 04:22:52;;;;;;;1.70;1.60;;;1.40;98.20;;;;;;5040069;28;20478;-76
2021/03/20 04:25:30;;;;;;;1.80;1.70;;;1.40;98.20;;;;;;5048703;28;20454;-76
2021/03/20 04:28:08;;;;;;;1.70;1.50;;;1.30;98.20;;;;;;5042032;28;20494;-76
2021/03/20 04:30:38;;;;;;;1.60;1.50;;;1.30;98.20;;;;;;5042681;28;20997;-76
2021/03/20 04:33:09;;;;;;;1.70;1.60;;;1.30;98.20;;;;;;5045350;28;20528;-76
2021/03/20 04:35:41;;;;;;;1.80;1.70;;;1.30;98.20;;;;;;5042474;28;21255;-76
2021/03/20 04:38:08;;;;;;;1.80;1.70;;;1.30;98.20;;;;;;5042737;28;20494;-76
2021/03/20 04:40:40;;;;;;;1.70;1.60;;;1.20;98.20;;;;;;5046663;28;20462;-76
2021/03/20 04:43:09;;;;;;;1.87;1.77;;;1.20;98.20;;;;;;5039554;28;20487;-76
2021/03/20 04:45:39;;;;;;;1.70;1.60;;;1.20;98.20;;;;;;5045735;28;20463;-78
2021/03/20 04:48:13;;;;;;;1.80;1.70;;;1.10;98.20;;;;;;5042779;28;20493;-75
2021/03/20 04:50:42;;;;;;;1.60;1.50;;;1.10;98.20;;;;;;5038978;28;20474;-77
2021/03/20 04:53:08;;;;;;;1.70;1.60;;;1.00;98.20;;;;;;5040240;28;20497;-77
2021/03/20 04:55:35;;;;;;;1.70;1.60;;;1.00;98.20;;;;;;5042972;28;20482;-76
2021/03/20 04:58:06;;;;;;;1.80;1.70;;;0.90;98.20;;;;;;5042759;28;20648;-76
2021/03/20 05:00:37;;;;;;;1.77;1.67;;;0.90;98.20;;;;;;5046959;28;20466;-77
2021/03/20 05:03:12;;;;;;;1.63;1.50;;;0.90;98.20;;;;;;5039512;28;20495;-75
2021/03/20 05:05:46;;;;;;;1.70;1.60;;;0.80;98.20;;;;;;5047026;28;20536;-77
2021/03/20 05:08:15;;;;;;;1.70;1.60;;;0.80;98.20;;;;;;5012963;28;20862;-77
2021/03/20 05:10:47;;;;;;;1.90;1.80;;;0.70;98.20;;;;;;5046036;28;20543;-75
2021/03/20 05:13:26;;;;;;;1.60;1.50;;;0.70;98.20;;;;;;5011028;28;20497;-75
2021/03/20 05:15:59;;;;;;;1.70;1.60;;;0.60;98.20;;;;;;5037308;28;20490;-75
2021/03/20 05:18:25;;;;;;;1.63;1.50;;;0.50;98.20;;;;;;5052815;28;20474;-75
2021/03/20 05:20:52;;;;;;;1.70;1.60;;;0.50;98.20;;;;;;5031919;28;20512;-76
2021/03/20 05:23:19;;;;;;;1.80;1.70;;;0.50;98.20;;;;;;5053081;28;20466;-76
2021/03/20 05:25:45;;;;;;;1.77;1.67;;;0.40;98.20;;;;;;5039237;28;20461;-75
2021/03/20 05:28:11;;;;;;;1.70;1.60;;;0.40;98.20;;;;;;5049197;28;20498;-76
2021/03/20 05:30:38;;;;;;;1.77;1.67;;;0.40;98.20;;;;;;5041106;28;20470;-77
2021/03/20 05:33:04;;;;;;;1.90;1.80;;;0.40;98.20;;;;;;5045218;28;20481;-77
2021/03/20 05:35:31;;;;;;;1.80;1.70;;;0.40;98.20;;;;;;5043271;28;20882;-77
2021/03/20 05:37:58;;;;;;;1.80;1.70;;;0.30;98.20;;;;;;5041686;28;20568;-78
2021/03/20 05:40:27;;;;;;;1.77;1.67;;;0.30;98.20;;;;;;5045417;28;21019;-76
2021/03/20 05:43:13;;;;;;;1.90;1.80;;;0.20;98.20;;;;;;5025308;28;20887;-76
2021/03/20 05:45:44;;;;;;;1.90;1.80;;;0.20;98.20;;;;;;5044896;28;20454;-76
2021/03/20 05:48:17;;;;;;;1.90;1.80;;;0.20;98.20;;;;;;5039520;28;20485;-76
2021/03/20 05:51:28;;;;;;;1.70;1.60;;;0.10;98.20;;;;;;5042568;28;20469;-74
2021/03/20 05:54:18;;;;;;;1.70;1.60;;;0.10;98.20;;;;;;4987468;28;20470;-76
2021/03/20 05:56:56;;;;;;;1.90;1.80;;;0.10;98.20;;;;;;5039502;28;20562;-77
2021/03/20 05:59:33;;;;;;;1.70;1.60;;;0.10;98.20;;;;;;5045210;28;20474;-76
2021/03/20 06:02:17;;;;;;;1.80;1.70;;;0.10;98.20;;;;;;5036360;28;20569;-77
2021/03/20 06:04:45;;;;;;;1.80;1.70;;;0.10;98.20;;;;;;5045843;28;20883;-76
2021/03/20 06:07:43;;;;;;;1.80;1.70;;;0.10;98.20;;;;;;5035942;28;20784;-77
2021/03/20 06:10:36;;;;;;;1.70;1.60;;;0.10;98.20;;;;;;5035356;28;20522;-77
2021/03/20 06:13:34;;;;;;;1.80;1.70;;;0.10;98.20;;;;;;5036785;28;20999;-77
2021/03/20 06:16:16;;;;;;;1.90;1.80;;;0.10;98.20;;;;;;5025310;28;20490;-77
2021/03/20 06:19:24;;;;;;;1.70;1.60;;;0.20;98.20;;;;;;5045507;28;20482;-77
2021/03/20 06:22:10;;;;;;;1.70;1.60;;;0.20;98.20;;;;;;5015042;28;20477;-76
2021/03/20 06:25:02;;;;;;;1.70;1.60;;;0.30;98.20;;;;;;5045231;28;20490;-78
2021/03/20 06:27:36;;;;;;;1.70;1.60;;;0.50;98.20;;;;;;5035563;28;20485;-75
2021/03/20 06:30:08;;;;;;;1.60;1.50;;;0.60;98.20;;;;;;5043074;28;20914;-75
2021/03/20 06:32:38;;;;;;;1.60;1.50;;;0.80;98.20;;;;;;5037377;28;20473;-76
2021/03/20 06:35:20;;;;;;;1.70;1.60;;;1.00;98.20;;;;;;5043612;28;20486;-76
2021/03/20 06:37:50;;;;;;;1.80;1.70;;;1.20;98.20;;;;;;5037008;28;20515;-77
2021/03/20 06:40:24;;;;;;;1.70;1.60;;;1.40;97.80;;;;;;5038339;28;20458;-76
2021/03/20 06:42:52;;;;;;;1.70;1.60;;;1.50;96.50;;;;;;5035612;28;20478;-76
2021/03/20 06:45:21;;;;;;;1.63;1.50;;;1.50;95.90;;;;;;5041562;28;20465;-76
2021/03/20 06:47:49;;;;;;;1.80;1.70;;;1.50;95.60;;;;;;5035483;28;20487;-77
2021/03/20 06:50:21;;;;;;;1.60;1.50;;;1.50;95.50;;;;;;5044610;28;20553;-76
2021/03/20 06:52:51;;;;;;;1.70;1.60;;;1.50;95.40;;;;;;5038524;28;20557;-76
2021/03/20 06:55:25;;;;;;;1.60;1.50;;;1.50;96.20;;;;;;5039128;28;20505;-76
2021/03/20 06:57:52;;;;;;;1.70;1.60;;;1.60;97.40;;;;;;5042759;28;20606;-76
2021/03/20 07:00:24;;;;;;;1.73;1.63;;;1.80;97.30;;;;;;5040474;28;20458;-75
2021/03/20 07:03:20;;;;;;;1.70;1.60;;;2.00;97.10;;;;;;5032371;28;20478;-75
2021/03/20 07:05:52;;;;;;;1.60;1.50;;;2.20;96.70;;;;;;5039153;28;20979;-75
2021/03/20 07:08:33;;;;;;;1.70;1.60;;;2.50;94.80;;;;;;5043310;28;20670;-75
2021/03/20 07:11:01;;;;;;;1.67;1.50;;;2.70;94.00;;;;;;5032410;28;21006;-76
2021/03/20 07:13:30;;;;;;;1.70;1.53;;;2.80;94.20;;;;;;5038826;28;20531;-75
2021/03/20 07:16:04;;;;;;;1.90;1.80;;;3.10;93.50;;;;;;5034807;28;20482;-76
2021/03/20 07:18:44;;;;;;;1.70;1.60;;;3.20;92.60;;;;;;5054571;28;20478;-76
2021/03/20 07:21:36;;;;;;;1.60;1.50;;;3.40;92.70;;;;;;5037130;28;20570;-75
2021/03/20 07:24:06;;;;;;;1.67;1.47;;;3.70;91.70;;;;;;5052772;28;20472;-77
2021/03/20 07:26:48;;;;;;;1.60;1.40;;;3.90;90.80;;;;;;5037417;28;20968;-76
2021/03/20 07:29:16;;;;;;;1.70;1.60;;;3.90;89.70;;;;;;5048074;28;20480;-75
2021/03/20 07:31:53;;;;;;;1.60;1.40;;;4.00;89.40;;;;;;5043415;28;20602;-76
2021/03/20 07:34:24;;;;;;;1.60;1.30;;;4.00;89.40;;;;;;5050407;28;20512;-75
2021/03/20 07:37:03;;;;;;;1.67;1.50;;;4.00;89.10;;;;;;5037185;28;20485;-75
2021/03/20 07:39:39;;;;;;;1.70;1.57;;;4.00;89.50;;;;;;5042410;28;21309;-76
2021/03/20 07:42:07;;;;;;;1.60;1.40;;;4.10;89.40;;;;;;5039848;28;20497;-76
2021/03/20 07:44:50;;;;;;;1.70;1.50;;;4.10;89.80;;;;;;5045167;28;20504;-76
2021/03/20 07:47:18;;;;;;;1.67;1.50;;;4.20;89.40;;;;;;5040764;28;20497;-75
2021/03/20 07:49:45;;;;;;;1.60;1.30;;;4.20;89.10;;;;;;5046169;28;20535;-77
2021/03/20 07:52:24;;;;;;;1.60;1.40;;;4.20;88.70;;;;;;5042096;28;20482;-77
2021/03/20 07:55:04;;;;;;;1.60;1.40;;;4.20;89.20;;;;;;5045589;28;20491;-76
2021/03/20 07:57:33;;;;;;;2.53;2.33;;;4.20;89.00;;;;;;5034773;28;20512;-76
2021/03/20 08:00:20;;;;;;;1.70;1.50;;;4.20;88.30;;;;;;5048445;28;20462;-76
2021/03/20 08:02:46;;;;;;;1.60;1.40;;;4.20;88.20;;;;;;5030691;28;20569;-74
2021/03/20 08:05:29;;;;;;;1.60;1.40;;;4.20;88.40;;;;;;5038237;28;20528;-74
2021/03/20 08:07:56;;;;;;;1.60;1.50;;;4.30;89.40;;;;;;5040251;28;20569;-75
2021/03/20 08:10:27;;;;;;;1.60;1.30;;;4.30;88.70;;;;;;5045353;28;20969;-75
2021/03/20 08:13:04;;;;;;;1.60;1.40;;;4.40;88.50;;;;;;5040636;28;20562;-75
2021/03/20 08:15:35;;;;;;;1.63;1.33;;;4.60;88.40;;;;;;5041915;28;20489;-75
2021/03/20 08:18:20;;;;;;;1.60;1.30;;;4.80;87.20;;;;;;5036516;28;20505;-74
2021/03/20 08:21:04;;;;;;;1.60;1.30;;;4.90;87.00;;;;;;5037230;28;20466;-75
2021/03/20 08:23:52;;;;;;;1.60;1.30;;;5.10;87.60;;;;;;5051342;28;20508;-75
2021/03/20 08:26:25;;;;;;;1.60;1.50;;;5.30;86.60;;;;;;5038573;28;20474;-75
2021/03/20 08:28:58;;;;;;;1.60;1.40;;;5.50;85.70;;;;;;5051422;28;20582;-75
2021/03/20 08:32:04;;;;;;;1.60;1.30;;;5.60;85.50;;;;;;5036193;28;20474;-75
2021/03/20 08:34:44;;;;;;;1.60;1.30;;;5.80;85.20;;;;;;5049860;28;20465;-75
2021/03/20 08:37:55;;;;;;;1.60;1.30;;;6.00;84.60;;;;;;5041601;28;20864;-76
2021/03/20 08:40:32;;;;;;;1.60;1.30;;;6.20;83.40;;;;;;5045197;28;20531;-76
2021/03/20 08:43:38;;;;;;;1.60;1.20;;;6.30;83.30;;;;;;5036828;28;20477;-74
2021/03/20 08:46:19;;;;;;;1.57;1.30;;;6.40;82.00;;;;;;5005970;28;20472;-77
2021/03/20 08:48:56;;;;;;;1.60;1.20;;;6.20;80.80;;;;;;5045904;28;20514;-74
2021/03/20 08:51:35;;;;;;;1.60;1.30;;;6.10;81.30;;;;;;5031169;28;21311;-77
2021/03/20 08:54:14;;;;;;;1.60;1.40;;;6.00;80.30;;;;;;5046790;28;20459;-76
2021/03/20 08:56:52;;;;;;;1.60;1.33;;;5.90;81.40;;;;;;5038503;28;20511;-76
2021/03/20 08:59:23;;;;;;;1.80;1.60;;;5.80;81.80;;;;;;5044313;28;20473;-75
2021/03/20 09:01:53;;;;;;;1.60;1.30;;;5.70;81.50;;;;;;5032815;28;20479;-74
2021/03/20 09:04:22;;;;;;;1.60;1.30;;;5.60;81.10;;;;;;5048460;28;20466;-77
2021/03/20 09:06:55;;;;;;;1.60;1.20;;;5.50;81.70;;;;;;5039895;28;20484;-78
2021/03/20 09:09:26;;;;;;;1.60;1.30;;;5.60;83.00;;;;;;5044369;28;20466;-75
2021/03/20 09:11:59;;;;;;;1.53;1.20;;;5.70;81.50;;;;;;5038763;28;20487;-77
2021/03/20 09:14:30;;;;;;;1.50;1.20;;;5.80;81.90;;;;;;5047457;28;20833;-78
2021/03/20 09:17:01;;;;;;;1.60;1.40;;;6.00;81.90;;;;;;5037785;28;20527;-74
2021/03/20 09:19:33;;;;;;;1.60;1.20;;;6.30;80.70;;;;;;5041745;28;20513;-74
2021/03/20 09:22:05;;;;;;;1.53;1.20;;;6.60;81.50;;;;;;5040049;28;20490;-76
2021/03/20 09:24:33;;;;;;;1.57;1.27;;;6.80;80.90;;;;;;5048017;28;20511;-74
2021/03/20 09:27:02;;;;;;;1.57;1.20;;;7.10;79.90;;;;;;5034785;28;20490;-75
2021/03/20 09:29:30;;;;;;;1.57;1.20;;;7.30;79.50;;;;;;5044164;28;20524;-77
2021/03/20 09:32:04;;;;;;;1.57;1.17;;;7.50;79.70;;;;;;5038461;28;21053;-77
2021/03/20 09:34:53;;;;;;;1.53;1.20;;;7.60;78.30;;;;;;5044765;28;20468;-74
2021/03/20 09:37:57;;;;;;;1.53;1.20;;;7.70;74.20;;;;;;5039385;28;20497;-74
2021/03/20 09:40:55;;;;;;;1.60;1.20;;;7.60;72.20;;;;;;5033855;28;20466;-77
2021/03/20 09:43:38;;;;;;;1.60;1.30;;;7.80;73.30;;;;;;5014329;28;20490;-75
2021/03/20 09:46:45;;;;;;;1.53;1.20;;;8.00;73.30;;;;;;5035829;28;20884;-76
2021/03/20 09:49:48;;;;;;;1.57;1.20;;;8.20;72.00;;;;;;5046074;28;20470;-74
2021/03/20 09:52:40;;;;;;;1.50;1.10;;;8.40;71.30;;;;;;5038240;28;20480;-75
2021/03/20 09:55:44;;;;;;;1.53;1.10;;;8.60;72.80;;;;;;5042982;28;20486;-77
2021/03/20 09:58:36;;;;;;;1.53;1.10;;;9.00;72.70;;;;;;5037628;28;20486;-76
2021/03/20 10:01:13;;;;;;;1.50;1.20;;;9.00;67.50;;;;;;5031096;28;20474;-74
2021/03/20 10:03:46;;;;;;;1.50;1.10;;;9.20;68.50;;;;;;5052391;28;20465;-75
2021/03/20 10:06:29;;;;;;;1.50;1.10;;;9.30;69.70;;;;;;5035999;28;20525;-77
2021/03/20 10:09:19;;;;;;;1.53;1.00;;;9.50;70.40;;;;;;5047170;28;20811;-76
2021/03/20 10:12:20;;;;;;;1.57;1.10;;;9.60;69.20;;;;;;5035210;28;20662;-76
2021/03/20 10:15:11;;;;;;;1.57;1.10;;;9.80;69.70;;;;;;5044767;28;20571;-77
2021/03/20 10:17:57;;;;;;;1.53;1.10;;;9.90;68.70;;;;;;5027072;28;20561;-77
2021/03/20 10:20:35;;;;;;;1.53;1.10;;;10.10;68.90;;;;;;5042091;28;20463;-77
2021/03/20 10:23:09;;;;;;;1.60;1.10;;;10.20;69.60;;;;;;5041799;28;20537;-78
2021/03/20 10:25:42;;;;;;;1.60;1.10;;;10.30;69.10;;;;;;5043614;28;20874;-76
2021/03/20 10:28:08;;;;;;;1.50;1.03;;;10.30;67.80;;;;;;5041017;28;20512;-77
2021/03/20 10:30:37;;;;;;;1.60;1.10;;;10.30;67.60;;;;;;5032377;28;20532;-76
2021/03/20 10:33:05;;;;;;;1.50;1.10;;;10.30;65.90;;;;;;5045064;28;20516;-75
2021/03/20 10:35:35;;;;;;;1.50;1.00;;;10.30;64.40;;;;;;5043556;28;20552;-75
2021/03/20 10:38:14;;;;;;;1.50;1.10;;;10.10;63.50;;;;;;5044914;28;20482;-76
2021/03/20 10:40:43;;;;;;;1.57;1.00;;;10.00;65.00;;;;;;5037689;28;20470;-80
2021/03/20 10:43:14;;;;;;;1.57;1.10;;;10.10;65.10;;;;;;5037923;28;20835;-76
2021/03/20 10:45:43;;;;;;;1.53;1.03;;;10.20;65.40;;;;;;5046541;28;20462;-78
2021/03/20 10:48:17;;;;;;;1.50;1.00;;;10.20;64.80;;;;;;5048111;28;20497;-77
2021/03/20 10:50:49;;;;;;;1.57;1.17;;;10.30;64.60;;;;;;5049082;28;20529;-77
2021/03/20 10:53:19;;;;;;;1.50;1.10;;;10.30;64.10;;;;;;5019371;28;20831;-78
2021/03/20 10:55:51;;;;;;;1.57;1.00;;;10.30;63.20;;;;;;5049572;28;20624;-76
2021/03/20 10:58:28;;;;;;;1.50;1.10;;;10.20;61.50;;;;;;5021531;28;20935;-77
2021/03/20 11:00:55;;;;;;;1.57;1.10;;;10.20;61.50;;;;;;5037993;28;20477;-75
2021/03/20 11:03:29;;;;;;;1.50;1.00;;;10.20;61.40;;;;;;5058493;28;20466;-76
2021/03/20 11:06:09;;;;;;;1.53;1.00;;;10.20;62.50;;;;;;5040471;28;20466;-76
2021/03/20 11:08:35;;;;;;;1.50;1.00;;;10.30;62.40;;;;;;5055477;28;20486;-76
2021/03/20 11:11:19;;;;;;;1.50;1.00;;;10.30;62.50;;;;;;5033104;28;20466;-74
2021/03/20 11:13:48;;;;;;;1.60;1.20;;;10.40;61.40;;;;;;5051147;28;20561;-77
2021/03/20 11:16:18;;;;;;;1.53;1.00;;;10.40;62.10;;;;;;5036713;28;20879;-76
2021/03/20 11:18:48;;;;;;;1.53;1.10;;;10.50;61.80;;;;;;5042865;28;20489;-79
2021/03/20 11:21:21;;;;;;;1.50;1.00;;;10.50;60.90;;;;;;5036858;28;20478;-77
2021/03/20 11:23:55;;;;;;;1.50;1.10;;;10.50;59.70;;;;;;5048713;28;20485;-78
2021/03/20 11:26:40;;;;;;;1.50;1.00;;;10.50;60.20;;;;;;5039199;28;20470;-76
2021/03/20 11:29:10;;;;;;;1.50;1.00;;;10.40;60.90;;;;;;5049805;28;20469;-77
2021/03/20 11:31:44;;;;;;;1.50;1.07;;;10.40;60.90;;;;;;5037981;28;20477;-76
2021/03/20 11:34:18;;;;;;;1.50;1.00;;;10.30;61.30;;;;;;5046616;28;20469;-75
2021/03/20 11:36:45;;;;;;;1.50;1.00;;;10.30;60.60;;;;;;5036681;28;20474;-75
2021/03/20 11:39:15;;;;;;;1.50;1.00;;;10.20;61.80;;;;;;5048965;28;20465;-76
2021/03/20 11:41:44;;;;;;;1.50;1.10;;;10.30;61.20;;;;;;5050518;28;20839;-80
2021/03/20 11:44:25;;;;;;;1.53;1.10;;;10.30;60.30;;;;;;5052231;28;20471;-75
2021/03/20 11:46:55;;;;;;;1.53;1.10;;;10.30;60.90;;;;;;5034701;28;20521;-77
2021/03/20 11:49:38;;;;;;;1.50;1.00;;;10.40;59.40;;;;;;5050002;28;20461;-75
2021/03/20 11:52:08;;;;;;;1.50;1.00;;;10.40;61.00;;;;;;5039905;28;20484;-77
2021/03/20 11:54:37;;;;;;;1.50;0.90;;;10.30;60.10;;;;;;5041019;28;20476;-76
2021/03/20 11:57:30;;;;;;;1.60;1.30;;;10.30;62.20;;;;;;5035591;28;20485;-78
2021/03/20 11:59:56;;;;;;;1.50;1.00;;;10.60;62.70;;;;;;5044284;28;20470;-77
2021/03/20 12:02:41;;;;;;;1.53;1.10;;;10.70;60.50;;;;;;5032475;28;20486;-77
2021/03/20 12:05:11;;;;;;;1.50;1.00;;;10.90;62.20;;;;;;5041299;28;20469;-76
2021/03/20 12:07:37;;;;;;;1.50;1.00;;;11.20;61.40;;;;;;5031328;28;21004;-76
2021/03/20 12:10:14;;;;;;;1.50;1.00;;;11.20;60.10;;;;;;5044641;28;20462;-78
2021/03/20 12:12:49;;;;;;;1.50;1.00;;;11.20;59.50;;;;;;5038771;28;20486;-75
2021/03/20 12:15:30;;;;;;;1.50;1.00;;;11.20;59.00;;;;;;5040880;28;20479;-77
2021/03/20 12:17:58;;;;;;;1.53;1.00;;;11.40;57.90;;;;;;5039487;28;20490;-78
2021/03/20 12:20:40;;;;;;;1.57;1.00;;;11.40;57.20;;;;;;5043381;28;20721;-79
2021/03/20 12:23:16;;;;;;;1.50;1.00;;;11.40;56.80;;;;;;5042043;28;20590;-78
2021/03/20 12:25:49;;;;;;;1.50;1.00;;;11.40;57.00;;;;;;5041205;28;20983;-78
2021/03/20 12:28:36;;;;;;;1.50;1.00;;;11.40;56.70;;;;;;5011357;28;20527;-78
2021/03/20 12:31:28;;;;;;;1.53;1.03;;;11.40;56.20;;;;;;5028853;28;20533;-78
2021/03/20 12:33:58;;;;;;;1.50;1.00;;;11.50;55.90;;;;;;5037875;28;20467;-76
2021/03/20 12:36:31;;;;;;;1.50;1.00;;;11.50;53.40;;;;;;5033410;28;20488;-76
2021/03/20 12:38:58;;;;;;;1.50;1.00;;;11.70;56.30;;;;;;5043838;28;20482;-78
2021/03/20 12:41:27;;;;;;;1.60;1.10;;;11.90;55.60;;;;;;5030344;28;20478;-79
2021/03/20 12:44:13;;;;;;;1.53;1.00;;;12.00;56.10;;;;;;5046136;28;20477;-77
2021/03/20 12:46:45;;;;;;;1.50;1.00;;;12.10;53.70;;;;;;5028264;28;20489;-75
2021/03/20 12:49:16;;;;;;;1.50;1.00;;;12.10;53.90;;;;;;5032486;28;20627;-76
2021/03/20 12:51:43;;;;;;;1.50;1.00;;;12.30;55.90;;;;;;5031464;28;20509;-76
2021/03/20 12:54:19;;;;;;;1.50;1.00;;;12.30;54.00;;;;;;5035128;28;20476;-76
2021/03/20 12:56:46;;;;;;;1.50;1.00;;;12.30;55.20;;;;;;5033598;28;20767;-75
2021/03/20 12:59:13;;;;;;;1.50;1.00;;;12.30;49.90;;;;;;5047254;28;20549;-76
2021/03/20 13:01:40;;;;;;;1.50;1.00;;;12.30;50.40;;;;;;5038168;28;21150;-77
2021/03/20 13:04:06;;;;;;;1.50;1.00;;;12.20;50.90;;;;;;5047316;28;20569;-77
2021/03/20 13:06:33;;;;;;;1.70;1.40;;;12.00;50.20;;;;;;5035842;28;20478;-77
2021/03/20 13:08:59;;;;;;;1.50;1.00;;;11.60;52.00;;;;;;5042533;28;20486;-76
2021/03/20 13:11:30;;;;;;;1.50;1.00;;;11.70;53.90;;;;;;5034358;28;20484;-78
2021/03/20 13:13:57;;;;;;;1.50;1.03;;;11.70;53.70;;;;;;5042872;28;20964;-77
2021/03/20 13:16:24;;;;;;;1.50;1.00;;;11.70;52.80;;;;;;5027026;28;20482;-76
2021/03/20 13:18:51;;;;;;;1.50;1.00;;;11.80;54.10;;;;;;5048270;28;20506;-78
2021/03/20 13:21:18;;;;;;;1.50;1.00;;;11.90;53.50;;;;;;5027384;28;20482;-76
2021/03/20 13:23:45;;;;;;;1.50;1.03;;;12.00;54.10;;;;;;5040135;28;20518;-76
2021/03/20 13:26:12;;;;;;;1.50;1.00;;;12.20;54.00;;;;;;5025778;28;21045;-76
2021/03/20 13:28:38;;;;;;;1.50;1.00;;;12.30;52.30;;;;;;5042020;28;20933;-76
2021/03/20 13:31:04;;;;;;;1.50;1.00;;;12.20;52.70;;;;;;5030372;28;20463;-76
2021/03/20 13:33:32;;;;;;;1.50;1.00;;;12.40;53.90;;;;;;5046942;28;20466;-77